createdAt,value
2023-01-22T05:16:58.481Z,101867.19
2023-01-22T05:19:25.714Z,101870.62
2023-01-22T05:21:52.681Z,101876.70
2023-01-22T05:24:20.194Z,101877.90
2023-01-22T05:26:47.127Z,101882.70
2023-01-22T05:29:18.663Z,101888.03
2023-01-22T05:31:45.601Z,101894.98
2023-01-22T05:34:25.563Z,101891.94
2023-01-22T05:36:53.045Z,101894.20
2023-01-22T05:39:23.967Z,101895.02
2023-01-22T05:41:52.556Z,101892.92
2023-01-22T05:44:19.984Z,101894.27
2023-01-22T05:46:52.899Z,101897.89
2023-01-22T05:49:30.171Z,101901.54
2023-01-22T05:51:58.997Z,101907.66
2023-01-22T05:54:26.189Z,101909.83
2023-01-22T05:56:54.892Z,101912.52
2023-01-22T05:59:23.202Z,101915.71
2023-01-22T06:02:00.416Z,101916.23
2023-01-22T06:04:27.352Z,101916.48
2023-01-22T06:06:54.317Z,101922.46
2023-01-22T06:09:22.220Z,101924.29
2023-01-22T06:11:49.804Z,101923.34
2023-01-22T06:14:16.890Z,101922.48
2023-01-22T06:16:43.957Z,101923.08
2023-01-22T06:19:31.250Z,101927.05
2023-01-22T06:21:58.434Z,101932.28
2023-01-22T06:24:39.542Z,101932.48
2023-01-22T06:27:07.420Z,101935.81
2023-01-22T06:29:50.044Z,101943.73
2023-01-22T06:32:16.979Z,101951.02
2023-01-22T06:34:44.251Z,101953.81
2023-01-22T06:37:11.055Z,101956.87
2023-01-22T06:39:38.537Z,101958.21
2023-01-22T06:42:16.227Z,101965.65
2023-01-22T06:44:43.165Z,101966.54
2023-01-22T06:47:10.211Z,101973.35
2023-01-22T06:49:37.259Z,101975.08
2023-01-22T06:52:07.000Z,101974.33
2023-01-22T06:54:34.095Z,101977.78
2023-01-22T06:57:01.037Z,101977.95
2023-01-22T06:59:27.934Z,101976.29
2023-01-22T07:01:54.898Z,101980.11
2023-01-22T07:04:21.848Z,101983.57
2023-01-22T07:06:48.965Z,101985.33
2023-01-22T07:09:15.840Z,101990.64
2023-01-22T07:11:42.767Z,101995.58
2023-01-22T07:14:09.646Z,101994.67
2023-01-22T07:16:36.474Z,101993.10
2023-01-22T07:19:03.310Z,101992.54
2023-01-22T07:21:30.253Z,101994.55
2023-01-22T07:23:57.118Z,101992.74
2023-01-22T07:26:24.157Z,101993.36
2023-01-22T07:28:51.173Z,101995.25
2023-01-22T07:31:18.338Z,101992.17
2023-01-22T07:33:45.182Z,101990.02
2023-01-22T07:36:12.022Z,101988.02
2023-01-22T07:41:25.512Z,101989.03
2023-01-22T07:43:54.735Z,101991.42
2023-01-22T07:46:22.048Z,101991.88
2023-01-22T07:48:48.933Z,101997.58
2023-01-22T07:51:15.831Z,102000.30
2023-01-22T07:53:42.974Z,102006.60
2023-01-22T07:56:10.094Z,102007.92
2023-01-22T07:58:37.084Z,102012.29
2023-01-22T08:01:07.850Z,102014.08
2023-01-22T08:03:35.616Z,102019.72
2023-01-22T08:06:02.556Z,102022.39
2023-01-22T08:08:29.490Z,102019.27
2023-01-22T08:10:58.490Z,102023.46
2023-01-22T08:13:25.468Z,102027.91
2023-01-22T08:15:52.370Z,102031.06
2023-01-22T08:18:22.134Z,102028.30
2023-01-22T08:20:49.842Z,102029.59
2023-01-22T08:23:16.814Z,102027.64
2023-01-22T08:25:43.695Z,102025.84
2023-01-22T08:28:10.828Z,102026.97
2023-01-22T08:30:45.510Z,102031.04
2023-01-22T08:33:13.404Z,102031.44
2023-01-22T08:35:40.381Z,102033.65
2023-01-22T08:38:07.232Z,102030.09
2023-01-22T08:40:34.143Z,102035.37
2023-01-22T08:43:01.314Z,102039.36
2023-01-22T08:45:28.179Z,102044.02
2023-01-22T08:47:59.924Z,102047.55
2023-01-22T08:50:28.875Z,102041.65
2023-01-22T08:52:58.792Z,102042.94
2023-01-22T08:55:27.862Z,102043.55
2023-01-22T08:57:55.709Z,102043.55
2023-01-22T09:00:23.214Z,102044.41
2023-01-22T09:02:50.274Z,102045.05
2023-01-22T09:05:17.526Z,102046.63
2023-01-22T09:07:44.566Z,102047.63
2023-01-22T09:10:13.078Z,102047.98
2023-01-22T09:12:40.568Z,102045.42
2023-01-22T09:15:07.621Z,102047.99
2023-01-22T09:17:34.581Z,102055.83
2023-01-22T09:20:01.424Z,102056.86
2023-01-22T09:22:28.701Z,102058.63
2023-01-22T09:24:55.738Z,102058.23
2023-01-22T09:27:22.783Z,102062.70
2023-01-22T09:29:49.731Z,102065.36
2023-01-22T09:32:16.785Z,102064.36
2023-01-22T09:34:43.715Z,102066.45
2023-01-22T09:37:11.554Z,102066.33
2023-01-22T10:07:53.068Z,102062.07
2023-01-22T10:10:25.653Z,102058.36
2023-01-22T10:13:11.740Z,102057.70
2023-01-22T10:15:38.758Z,102062.61
2023-01-22T10:18:56.539Z,102067.59
2023-01-22T10:21:28.319Z,102065.96
2023-01-22T10:23:58.702Z,102069.49
2023-01-22T10:26:32.273Z,102069.59
2023-01-22T10:29:06.242Z,102069.53
2023-01-22T10:31:38.450Z,102070.52
2023-01-22T10:34:13.401Z,102071.27
2023-01-22T10:36:40.423Z,102074.54
2023-01-22T10:39:14.661Z,102077.69
2023-01-22T10:41:46.268Z,102083.42
2023-01-22T10:44:18.369Z,102083.98
2023-01-22T10:46:50.007Z,102085.20
2023-01-22T10:49:22.669Z,102084.16
2023-01-22T10:51:55.164Z,102084.82
2023-01-22T10:54:23.400Z,102086.40
2023-01-22T10:56:50.315Z,102083.54
2023-01-22T10:59:21.490Z,102082.89
2023-01-22T11:01:48.932Z,102080.27
2023-01-22T11:04:26.636Z,102081.59
2023-01-22T11:07:08.735Z,102080.03
2023-01-22T11:09:46.667Z,102081.95
2023-01-22T11:12:22.633Z,102084.06
2023-01-22T11:14:55.802Z,102082.92
2023-01-22T11:17:29.707Z,102081.03
2023-01-22T11:20:14.392Z,102081.01
2023-01-22T11:22:41.365Z,102079.36
2023-01-22T11:25:11.734Z,102079.90
2023-01-22T11:27:51.185Z,102078.10
2023-01-22T11:30:55.366Z,102076.73
2023-01-22T11:33:30.332Z,102079.41
2023-01-22T11:36:03.536Z,102078.02
2023-01-22T11:38:46.612Z,102080.69
2023-01-22T11:41:21.188Z,102082.17
2023-01-22T11:44:18.127Z,102085.17
2023-01-22T11:46:44.895Z,102084.55
2023-01-22T11:49:36.498Z,102088.46
2023-01-22T11:52:20.325Z,102090.27
2023-01-22T11:55:12.293Z,102090.84
2023-01-22T11:57:43.731Z,102097.27
2023-01-22T12:00:37.244Z,102100.59
2023-01-22T12:03:32.404Z,102102.55
2023-01-22T12:06:23.917Z,102104.89
2023-01-22T12:09:01.217Z,102106.76
2023-01-22T12:11:34.052Z,102112.29
2023-01-22T12:14:14.863Z,102112.98
2023-01-22T12:16:45.070Z,102111.95
2023-01-22T12:19:27.720Z,102116.10
2023-01-22T12:22:29.370Z,102117.29
2023-01-22T12:25:02.550Z,102116.62
2023-01-22T12:27:34.711Z,102117.08
2023-01-22T12:30:17.121Z,102117.13
2023-01-22T12:32:46.549Z,102122.08
2023-01-22T12:35:17.602Z,102122.89
2023-01-22T12:37:57.735Z,102131.73
2023-01-22T12:40:39.482Z,102133.97
2023-01-22T12:43:06.788Z,102134.52
2023-01-22T12:45:52.856Z,102136.29
2023-01-22T12:48:30.418Z,102141.51
2023-01-22T12:50:58.004Z,102141.88
2023-01-22T12:53:34.838Z,102146.35
2023-01-22T12:56:09.497Z,102145.88
2023-01-22T12:58:38.388Z,102145.52
2023-01-22T13:01:14.326Z,102144.60
2023-01-22T13:03:41.549Z,102147.50
2023-01-22T13:06:29.727Z,102152.77
2023-01-22T13:08:56.659Z,102159.60
2023-01-22T13:11:32.421Z,102160.88
2023-01-22T13:14:26.881Z,102157.98
2023-01-22T13:17:24.887Z,102159.84
2023-01-22T13:19:51.874Z,102163.61
2023-01-22T13:22:25.233Z,102165.77
2023-01-22T13:24:57.100Z,102164.11
2023-01-22T13:27:25.153Z,102164.48
2023-01-22T13:29:52.091Z,102164.77
2023-01-22T13:32:20.557Z,102161.65
2023-01-22T13:34:47.771Z,102167.23
2023-01-22T13:37:25.297Z,102166.61
2023-01-22T13:39:52.156Z,102169.36
2023-01-22T13:42:18.949Z,102168.92
2023-01-22T13:44:49.279Z,102170.98
2023-01-22T13:47:26.514Z,102168.82
2023-01-22T13:49:53.617Z,102172.07
2023-01-22T13:52:20.571Z,102173.63
2023-01-22T13:54:53.123Z,102176.75
2023-01-22T13:57:21.446Z,102178.50
2023-01-22T13:59:57.832Z,102179.98
2023-01-22T14:02:31.327Z,102181.54
2023-01-22T14:04:58.400Z,102181.08
2023-01-22T14:07:29.376Z,102179.70
2023-01-22T14:09:57.036Z,102178.11
2023-01-22T14:12:27.283Z,102182.15
2023-01-22T14:14:54.210Z,102180.81
2023-01-22T14:17:23.055Z,102184.84
2023-01-22T14:19:50.036Z,102186.45
2023-01-22T14:22:17.035Z,102189.88
2023-01-22T14:24:43.991Z,102193.64
2023-01-22T14:27:11.463Z,102201.96
2023-01-22T14:29:38.555Z,102205.11
2023-01-22T14:32:05.595Z,102209.98
2023-01-22T14:34:32.637Z,102213.98
2023-01-22T14:36:59.441Z,102215.51
2023-01-22T14:39:26.385Z,102217.80
2023-01-22T14:41:53.249Z,102218.19
2023-01-22T14:44:20.155Z,102223.39
2023-01-22T14:46:47.033Z,102223.83
2023-01-22T14:49:14.269Z,102225.80
2023-01-22T14:51:41.328Z,102228.38
2023-01-22T14:54:08.347Z,102230.70
2023-01-22T14:56:35.402Z,102228.60
2023-01-22T14:59:02.373Z,102232.18
2023-01-22T15:01:29.264Z,102237.70
2023-01-22T15:03:56.266Z,102237.61
2023-01-22T15:06:26.383Z,102236.00
2023-01-22T15:08:53.457Z,102233.34
2023-01-22T15:11:20.445Z,102232.27
2023-01-22T15:13:47.657Z,102232.94
2023-01-22T15:16:14.728Z,102232.61
2023-01-22T15:18:41.622Z,102236.39
2023-01-22T15:21:08.691Z,102237.77
2023-01-22T15:23:36.022Z,102236.40
2023-01-22T15:26:10.432Z,102237.70
2023-01-22T15:28:37.439Z,102237.17
2023-01-22T15:31:08.115Z,102244.85
2023-01-22T15:33:35.986Z,102245.56
2023-01-22T15:36:03.912Z,102247.63
2023-01-22T15:38:30.889Z,102248.09
2023-01-22T15:41:07.807Z,102246.47
2023-01-22T15:43:34.573Z,102248.30
2023-01-22T15:46:01.557Z,102251.63
2023-01-22T15:48:28.510Z,102252.20
2023-01-22T15:50:55.439Z,102253.70
2023-01-22T16:05:22.775Z,102263.14
2023-01-22T16:07:52.349Z,102268.08
2023-01-22T16:10:20.146Z,102265.87
2023-01-22T16:12:47.195Z,102269.23
2023-01-22T16:15:14.138Z,102268.48
2023-01-22T16:17:41.075Z,102269.98
2023-01-22T16:20:10.127Z,102273.35
2023-01-22T16:22:37.218Z,102276.45
2023-01-22T16:25:04.779Z,102278.88
2023-01-22T16:27:31.783Z,102277.70
2023-01-22T16:29:58.977Z,102276.94
2023-01-22T16:32:26.025Z,102271.46
2023-01-22T16:34:52.977Z,102270.50
2023-01-22T16:37:19.930Z,102274.58
2023-01-22T16:39:46.792Z,102279.36
2023-01-22T16:42:13.705Z,102280.14
2023-01-22T16:44:40.662Z,102283.06
2023-01-22T16:47:07.509Z,102283.71
2023-01-22T16:49:34.645Z,102284.59
2023-01-22T16:52:16.600Z,102287.64
2023-01-22T16:54:48.220Z,102288.94
2023-01-22T16:57:15.663Z,102289.19
2023-01-22T16:59:42.557Z,102286.88
2023-01-22T17:02:14.354Z,102288.41
2023-01-22T17:04:41.227Z,102292.45
2023-01-22T17:07:08.446Z,102294.21
2023-01-22T17:09:36.555Z,102295.11
2023-01-22T17:12:04.659Z,102301.05
2023-01-22T17:14:32.252Z,102300.96
2023-01-22T17:16:59.179Z,102300.23
2023-01-22T17:19:26.270Z,102298.62
2023-01-22T17:21:55.377Z,102299.10
2023-01-22T17:24:22.595Z,102302.67
2023-01-22T17:26:50.369Z,102303.80
2023-01-22T17:29:17.562Z,102307.77
2023-01-22T17:31:44.555Z,102307.63
2023-01-22T17:34:11.840Z,102310.27
2023-01-22T17:36:39.465Z,102311.92
2023-01-22T17:39:06.797Z,102316.65
2023-01-22T17:41:33.767Z,102320.73
2023-01-22T17:44:00.603Z,102323.13
2023-01-22T17:46:32.244Z,102331.42
2023-01-22T17:48:59.632Z,102331.98
2023-01-22T17:51:27.613Z,102334.98
2023-01-22T17:53:55.676Z,102336.27
2023-01-22T17:56:26.932Z,102337.54
2023-01-22T17:58:56.105Z,102335.56
2023-01-22T18:01:25.305Z,102336.91
2023-01-22T19:55:40.660Z,102391.30
2023-01-22T19:58:08.305Z,102396.23
2023-01-22T20:00:35.356Z,102395.73
2023-01-22T20:03:06.797Z,102389.77
2023-01-22T20:05:41.239Z,102391.62
2023-01-22T20:08:08.270Z,102389.69
2023-01-22T20:10:37.621Z,102390.36
2023-01-22T20:13:05.222Z,102390.77
2023-01-22T20:15:42.316Z,102391.54
2023-01-22T20:18:10.235Z,102391.31
2023-01-22T20:20:39.481Z,102396.30
2023-01-22T20:23:06.422Z,102398.11
2023-01-22T20:25:33.308Z,102397.18
2023-01-22T20:28:00.401Z,102397.65
2023-01-22T20:30:27.702Z,102396.19
2023-01-22T20:32:56.556Z,102392.51
2023-01-22T20:35:23.708Z,102393.13
2023-01-22T20:37:50.694Z,102395.50
2023-01-22T20:40:18.207Z,102394.63
2023-01-22T20:42:45.080Z,102395.33
2023-01-22T20:45:12.003Z,102398.29
2023-01-22T20:47:38.955Z,102398.52
2023-01-22T20:50:06.520Z,102401.49
2023-01-22T20:52:33.410Z,102402.10
2023-01-22T20:55:02.640Z,102402.28
2023-01-22T20:57:30.534Z,102404.30
2023-01-22T20:59:57.554Z,102404.95
2023-01-22T21:02:24.606Z,102405.95
2023-01-22T21:04:52.934Z,102410.82
2023-01-22T21:07:20.177Z,102410.14
2023-01-22T21:09:47.201Z,102411.04
2023-01-22T21:12:14.340Z,102411.48
2023-01-22T21:14:41.282Z,102408.63
2023-01-22T21:17:08.411Z,102409.94
2023-01-22T21:19:35.324Z,102407.73
2023-01-22T21:22:04.044Z,102411.38
2023-01-22T21:24:31.231Z,102408.03
2023-01-22T21:26:58.171Z,102410.23
2023-01-22T21:29:25.418Z,102412.16
2023-01-22T21:31:52.594Z,102410.48
2023-01-22T21:34:21.334Z,102410.88
2023-01-22T21:36:48.993Z,102411.78
2023-01-22T21:39:18.647Z,102410.48
2023-01-22T21:41:45.660Z,102412.30
2023-01-22T21:44:32.884Z,102412.66
2023-01-22T21:46:59.725Z,102412.64
2023-01-22T21:49:26.780Z,102415.88
2023-01-22T21:51:55.630Z,102409.84
